Time;durP1;ratioP1;P1;durP2;ratioP2;P2;SDS_P1;SDS_P2;PMS_P1;PMS_P2;Temp;Humidity;BMP_temperature;BMP_pressure;BME280_temperature;BME280_humidity;BME280_pressure;Samples;Min_cycle;Max_cycle;Signal;HPM_P1;HPM_P2
2023/08/05 00:00:15;;;;;;;0.38;0.10;;;12.80;99.90;;;;;;4975720;28;20042;-66
2023/08/05 00:02:41;;;;;;;0.28;0.10;;;12.80;99.90;;;;;;4983552;28;20049;-66
2023/08/05 00:05:08;;;;;;;0.32;0.22;;;12.80;99.90;;;;;;4980198;28;20045;-66
2023/08/05 00:07:33;;;;;;;0.40;0.10;;;12.80;99.90;;;;;;4983135;28;20121;-66
2023/08/05 00:09:59;;;;;;;1.00;0.17;;;12.80;99.90;;;;;;4982431;28;20114;-66
2023/08/05 00:12:25;;;;;;;0.10;0.10;;;12.80;99.90;;;;;;4981930;28;20040;-66
2023/08/05 00:14:50;;;;;;;0.32;0.20;;;12.80;99.90;;;;;;5000697;28;20081;-66
2023/08/05 00:17:16;;;;;;;0.30;0.10;;;12.80;99.90;;;;;;4984550;28;20541;-66
2023/08/05 00:19:43;;;;;;;1.65;0.20;;;12.90;99.90;;;;;;4982125;28;20414;-66
2023/08/05 00:22:09;;;;;;;0.25;0.20;;;12.90;99.90;;;;;;4981410;28;20412;-66
2023/08/05 00:24:34;;;;;;;0.38;0.30;;;12.90;99.90;;;;;;4985248;28;20087;-66
2023/08/05 00:27:00;;;;;;;0.75;0.30;;;12.90;99.90;;;;;;4976218;28;20047;-66
2023/08/05 00:29:26;;;;;;;0.30;0.13;;;12.90;99.90;;;;;;4981131;28;20043;-66
2023/08/05 00:31:52;;;;;;;0.85;0.60;;;12.90;99.90;;;;;;4983351;28;20061;-66
2023/08/05 00:34:17;;;;;;;0.50;0.20;;;12.80;99.90;;;;;;4982896;28;20391;-66
2023/08/05 00:36:43;;;;;;;0.30;0.15;;;12.80;99.90;;;;;;4982957;28;20046;-66
2023/08/05 00:39:08;;;;;;;0.60;0.50;;;12.80;99.90;;;;;;4983703;28;20474;-66
2023/08/05 00:41:34;;;;;;;0.55;0.20;;;12.80;99.90;;;;;;4984312;28;20501;-66
2023/08/05 00:44:00;;;;;;;2.85;0.30;;;12.80;99.90;;;;;;4984737;28;20034;-66
2023/08/05 00:46:26;;;;;;;2.05;0.50;;;12.80;99.90;;;;;;4983048;28;20054;-66
2023/08/05 00:48:52;;;;;;;0.50;0.28;;;12.80;99.90;;;;;;4983217;28;20038;-66
2023/08/05 00:51:20;;;;;;;0.08;0.00;;;12.80;99.90;;;;;;4984293;28;20305;-65
2023/08/05 00:53:47;;;;;;;0.20;0.13;;;12.80;99.90;;;;;;4984974;28;20531;-65
2023/08/05 00:56:14;;;;;;;0.25;0.13;;;12.80;99.90;;;;;;4983936;28;20522;-66
2023/08/05 00:58:42;;;;;;;0.35;0.20;;;12.80;99.90;;;;;;4978414;28;20035;-66
2023/08/05 01:01:07;;;;;;;0.13;0.10;;;12.80;99.90;;;;;;4979282;28;20038;-66
2023/08/05 01:03:33;;;;;;;0.57;0.32;;;12.80;99.90;;;;;;4979281;28;20124;-66
2023/08/05 01:06:00;;;;;;;0.77;0.30;;;12.80;99.90;;;;;;4983970;28;20130;-66
2023/08/05 01:08:26;;;;;;;0.80;0.20;;;12.80;99.90;;;;;;4975476;28;20104;-66
2023/08/05 01:10:53;;;;;;;0.63;0.20;;;12.80;99.90;;;;;;4981774;28;20081;-66
2023/08/05 01:13:20;;;;;;;0.43;0.10;;;12.80;99.90;;;;;;4978861;28;20042;-66
2023/08/05 01:15:45;;;;;;;0.30;0.10;;;12.90;99.90;;;;;;4974437;28;20035;-67
2023/08/05 01:18:12;;;;;;;0.60;0.28;;;12.80;99.90;;;;;;4976794;28;20049;-66
2023/08/05 01:20:41;;;;;;;0.30;0.10;;;12.70;99.90;;;;;;4983459;28;20044;-67
2023/08/05 01:23:17;;;;;;;1.33;0.47;;;12.70;99.90;;;;;;4980270;28;20092;-66
2023/08/05 01:25:44;;;;;;;0.57;0.40;;;12.70;99.90;;;;;;4976237;28;20043;-66
2023/08/05 01:28:10;;;;;;;0.73;0.20;;;12.70;99.90;;;;;;4977922;28;20053;-66
2023/08/05 01:30:37;;;;;;;0.30;0.13;;;12.70;99.90;;;;;;4981040;28;20035;-66
2023/08/05 01:33:03;;;;;;;0.63;0.32;;;12.60;99.90;;;;;;4985667;28;20058;-66
2023/08/05 01:35:29;;;;;;;0.85;0.20;;;12.50;99.90;;;;;;4984815;28;20034;-66
2023/08/05 01:37:54;;;;;;;0.20;0.20;;;12.50;99.90;;;;;;4985598;28;20061;-66
2023/08/05 01:40:20;;;;;;;1.63;0.30;;;12.50;99.90;;;;;;4983118;28;20046;-66
2023/08/05 01:42:46;;;;;;;0.95;0.20;;;12.40;99.90;;;;;;4979086;28;20047;-65
2023/08/05 01:45:11;;;;;;;2.05;0.30;;;12.40;99.90;;;;;;4987688;28;20506;-66
2023/08/05 01:47:37;;;;;;;0.47;0.30;;;12.40;99.90;;;;;;4984964;28;20049;-66
2023/08/05 01:50:03;;;;;;;0.10;0.10;;;12.30;99.90;;;;;;4986599;28;20114;-66
2023/08/05 01:52:29;;;;;;;0.40;0.13;;;12.20;99.90;;;;;;4980429;28;20034;-66
2023/08/05 01:54:55;;;;;;;1.00;0.30;;;12.20;99.90;;;;;;4971929;28;20498;-66
2023/08/05 01:57:20;;;;;;;2.00;0.32;;;12.10;99.90;;;;;;4983983;28;20046;-66
2023/08/05 01:59:46;;;;;;;0.43;0.28;;;12.10;99.90;;;;;;4979011;28;20047;-66
2023/08/05 02:02:12;;;;;;;0.30;0.25;;;12.00;99.90;;;;;;4980459;28;20049;-66
2023/08/05 02:04:37;;;;;;;0.10;0.10;;;12.00;99.90;;;;;;4975402;28;20079;-66
2023/08/05 02:07:03;;;;;;;0.57;0.20;;;12.00;99.90;;;;;;4981050;28;20117;-66
2023/08/05 02:09:29;;;;;;;0.20;0.10;;;12.00;99.90;;;;;;4978883;28;20117;-66
2023/08/05 02:11:54;;;;;;;1.45;0.40;;;12.00;99.90;;;;;;4978041;28;20536;-66
2023/08/05 02:14:20;;;;;;;0.25;0.10;;;11.90;99.90;;;;;;4977363;28;20049;-66
2023/08/05 02:16:46;;;;;;;0.75;0.30;;;11.90;99.90;;;;;;4983752;28;20079;-66
2023/08/05 02:19:11;;;;;;;0.40;0.13;;;11.90;99.90;;;;;;4983013;28;20129;-66
2023/08/05 02:21:37;;;;;;;0.43;0.20;;;11.90;99.90;;;;;;4980169;28;20446;-66
2023/08/05 02:24:03;;;;;;;1.35;0.20;;;11.90;99.90;;;;;;4982562;28;20039;-66
2023/08/05 02:26:29;;;;;;;1.05;0.50;;;11.80;99.90;;;;;;4983224;28;20049;-66
2023/08/05 02:28:54;;;;;;;0.88;0.25;;;11.80;99.90;;;;;;4984364;28;20049;-65
2023/08/05 02:31:21;;;;;;;0.28;0.20;;;11.80;99.90;;;;;;4989541;28;20054;-66
2023/08/05 02:33:47;;;;;;;0.25;0.08;;;11.70;99.90;;;;;;4986026;28;20450;-66
2023/08/05 02:36:13;;;;;;;4.13;0.95;;;11.80;99.90;;;;;;4985537;28;20101;-66
2023/08/05 02:38:38;;;;;;;0.43;0.30;;;11.70;99.90;;;;;;4988880;28;20508;-67
2023/08/05 02:41:08;;;;;;;0.60;0.30;;;11.70;99.90;;;;;;4978982;28;20093;-66
2023/08/05 02:43:34;;;;;;;0.95;0.45;;;11.70;99.90;;;;;;4981457;28;20093;-66
2023/08/05 02:46:00;;;;;;;0.65;0.20;;;11.70;99.90;;;;;;4982755;28;20483;-66
2023/08/05 02:48:26;;;;;;;0.47;0.20;;;11.70;99.90;;;;;;4986006;28;20035;-66
2023/08/05 02:50:52;;;;;;;0.88;0.40;;;11.70;99.90;;;;;;4990606;28;20382;-66
2023/08/05 02:53:18;;;;;;;0.30;0.20;;;11.60;99.90;;;;;;4982269;28;20122;-66
2023/08/05 02:55:44;;;;;;;1.55;0.45;;;11.60;99.90;;;;;;4982522;28;20123;-66
2023/08/05 02:58:10;;;;;;;0.20;0.17;;;11.60;99.90;;;;;;4982566;28;20042;-66
2023/08/05 03:00:36;;;;;;;0.80;0.40;;;11.60;99.90;;;;;;4974126;28;20220;-66
2023/08/05 03:03:02;;;;;;;0.45;0.15;;;11.50;99.90;;;;;;4981924;28;20039;-65
2023/08/05 03:05:28;;;;;;;0.75;0.30;;;11.50;99.90;;;;;;4986623;28;20126;-66
2023/08/05 03:07:53;;;;;;;1.17;0.40;;;11.50;99.90;;;;;;4983723;28;20038;-66
2023/08/05 03:10:19;;;;;;;1.05;0.40;;;11.40;99.90;;;;;;4986641;28;20455;-66
2023/08/05 03:12:45;;;;;;;1.13;0.30;;;11.40;99.90;;;;;;4983846;28;20041;-65
2023/08/05 03:15:10;;;;;;;0.73;0.30;;;11.40;99.90;;;;;;4984609;28;20347;-66
2023/08/05 03:17:36;;;;;;;1.55;0.45;;;11.40;99.90;;;;;;4981663;28;20121;-66
2023/08/05 03:20:04;;;;;;;1.45;0.30;;;11.40;99.90;;;;;;4991453;28;20100;-66
2023/08/05 03:22:30;;;;;;;0.25;0.17;;;11.40;99.90;;;;;;4988103;28;20371;-66
2023/08/05 03:24:56;;;;;;;0.13;0.10;;;11.40;99.90;;;;;;4983725;28;20053;-65
2023/08/05 03:27:22;;;;;;;0.73;0.30;;;11.50;99.90;;;;;;4978304;28;20069;-66
2023/08/05 03:29:48;;;;;;;0.28;0.20;;;11.50;99.90;;;;;;4974156;28;20125;-65
2023/08/05 03:32:13;;;;;;;0.70;0.30;;;11.60;99.90;;;;;;4979393;28;20050;-66
2023/08/05 03:34:39;;;;;;;0.82;0.50;;;11.60;99.90;;;;;;4982619;28;20038;-66
2023/08/05 03:37:05;;;;;;;0.77;0.63;;;11.70;99.90;;;;;;4988105;28;20075;-66
2023/08/05 03:39:31;;;;;;;1.75;0.73;;;11.70;99.90;;;;;;4990603;28;20145;-66
2023/08/05 03:41:56;;;;;;;2.30;0.57;;;11.70;99.90;;;;;;4987159;28;20051;-65
2023/08/05 03:44:22;;;;;;;0.32;0.17;;;11.80;99.90;;;;;;4984255;28;20065;-66
2023/08/05 03:46:48;;;;;;;0.38;0.20;;;11.80;99.90;;;;;;4987323;28;20092;-65
2023/08/05 03:49:13;;;;;;;0.65;0.35;;;11.90;99.90;;;;;;4985401;28;20038;-66
2023/08/05 03:51:39;;;;;;;0.30;0.20;;;11.90;99.90;;;;;;4981911;28;20073;-66
2023/08/05 03:54:05;;;;;;;1.02;0.50;;;12.00;99.90;;;;;;4982064;28;20042;-66
2023/08/05 03:56:31;;;;;;;1.83;0.47;;;12.00;99.90;;;;;;4995105;28;20041;-66
2023/08/05 03:58:57;;;;;;;0.55;0.40;;;12.00;99.90;;;;;;4975502;28;20125;-66
2023/08/05 04:01:23;;;;;;;4.35;0.40;;;12.10;99.90;;;;;;4983767;28;20043;-65
2023/08/05 04:03:50;;;;;;;0.20;0.10;;;12.10;99.90;;;;;;4981648;28;20474;-66
2023/08/05 04:06:16;;;;;;;1.13;0.55;;;12.10;99.90;;;;;;4981225;28;20049;-66
2023/08/05 04:08:43;;;;;;;0.68;0.40;;;12.20;99.90;;;;;;4977472;28;20058;-66
2023/08/05 04:11:09;;;;;;;0.63;0.38;;;12.10;99.90;;;;;;4983405;28;20039;-66
2023/08/05 04:13:39;;;;;;;2.95;0.35;;;12.10;99.90;;;;;;4985619;28;20031;-66
2023/08/05 04:16:05;;;;;;;1.33;0.40;;;12.20;99.90;;;;;;4972736;28;20049;-66
2023/08/05 04:18:34;;;;;;;0.77;0.40;;;12.20;99.90;;;;;;5001183;28;20043;-66
2023/08/05 04:21:00;;;;;;;0.47;0.30;;;12.20;99.90;;;;;;4982259;28;20046;-66
2023/08/05 04:23:29;;;;;;;0.95;0.30;;;12.20;99.90;;;;;;4985469;28;20046;-66
2023/08/05 04:25:54;;;;;;;2.20;0.57;;;12.20;99.90;;;;;;4978443;28;20050;-66
2023/08/05 04:28:20;;;;;;;0.50;0.20;;;12.20;99.90;;;;;;4977657;28;20050;-66
2023/08/05 04:30:48;;;;;;;0.93;0.50;;;12.20;99.90;;;;;;4985600;28;20038;-66
2023/08/05 04:33:14;;;;;;;0.52;0.32;;;12.10;99.90;;;;;;4981513;28;20106;-66
2023/08/05 04:35:47;;;;;;;0.30;0.20;;;12.10;99.90;;;;;;4972406;28;20039;-66
2023/08/05 04:38:14;;;;;;;0.73;0.30;;;12.10;99.90;;;;;;4980100;28;20509;-67
2023/08/05 04:40:39;;;;;;;0.80;0.35;;;12.10;99.90;;;;;;4979662;28;20126;-66
2023/08/05 04:43:05;;;;;;;0.40;0.20;;;12.10;99.90;;;;;;4980267;28;20125;-66
2023/08/05 04:45:31;;;;;;;1.23;0.30;;;12.10;99.90;;;;;;4971739;28;20042;-66
2023/08/05 04:47:56;;;;;;;0.60;0.25;;;12.10;99.90;;;;;;4981191;28;20054;-66
2023/08/05 04:50:22;;;;;;;0.93;0.32;;;12.20;99.90;;;;;;4979336;28;20502;-66
2023/08/05 04:52:48;;;;;;;0.80;0.40;;;12.30;99.90;;;;;;4981465;28;20077;-66
2023/08/05 04:55:15;;;;;;;0.65;0.30;;;12.30;99.90;;;;;;4989104;28;20042;-66
2023/08/05 04:57:42;;;;;;;0.98;0.40;;;12.40;99.90;;;;;;4984544;28;20049;-66
2023/08/05 05:00:08;;;;;;;0.50;0.40;;;12.50;99.90;;;;;;4979244;28;20113;-66
2023/08/05 05:02:34;;;;;;;0.45;0.30;;;12.50;99.90;;;;;;4983049;28;20038;-67
2023/08/05 05:05:02;;;;;;;0.47;0.13;;;12.60;99.90;;;;;;4973592;28;20137;-66
2023/08/05 05:07:28;;;;;;;0.40;0.30;;;12.70;99.90;;;;;;4976749;28;20042;-66
2023/08/05 05:09:53;;;;;;;0.88;0.50;;;12.70;99.90;;;;;;4979501;28;20489;-66
2023/08/05 05:12:19;;;;;;;5.53;0.85;;;12.80;99.90;;;;;;4976085;28;20054;-66
2023/08/05 05:14:45;;;;;;;0.30;0.20;;;12.90;99.90;;;;;;4975956;28;20033;-66
2023/08/05 05:17:15;;;;;;;0.52;0.30;;;12.90;99.90;;;;;;4977506;28;20050;-66
2023/08/05 05:19:41;;;;;;;0.73;0.40;;;13.00;99.90;;;;;;4983200;28;20123;-66
2023/08/05 05:22:08;;;;;;;0.80;0.40;;;13.10;99.90;;;;;;4978443;28;20158;-66
2023/08/05 05:24:34;;;;;;;1.45;0.73;;;13.20;99.90;;;;;;4974030;28;20173;-66
2023/08/05 05:26:59;;;;;;;0.50;0.30;;;13.30;99.90;;;;;;4977765;28;20533;-66
2023/08/05 05:29:25;;;;;;;0.73;0.20;;;13.30;99.90;;;;;;4984157;28;20038;-66
2023/08/05 05:31:51;;;;;;;0.98;0.30;;;13.40;99.90;;;;;;4986047;28;20580;-67
2023/08/05 05:34:16;;;;;;;0.77;0.30;;;13.50;99.90;;;;;;4979605;28;20046;-66
2023/08/05 05:36:42;;;;;;;4.60;0.52;;;13.60;99.90;;;;;;4976466;28;20042;-66
2023/08/05 05:39:08;;;;;;;0.28;0.17;;;13.60;99.90;;;;;;4980130;28;20039;-66
2023/08/05 05:41:33;;;;;;;0.52;0.30;;;13.70;99.90;;;;;;4980428;28;20336;-66
2023/08/05 05:43:59;;;;;;;0.40;0.20;;;13.80;99.90;;;;;;4976498;28;20122;-67
2023/08/05 05:46:26;;;;;;;0.65;0.32;;;13.80;99.90;;;;;;4977427;28;20105;-67
2023/08/05 05:48:52;;;;;;;0.70;0.50;;;13.80;99.90;;;;;;4980604;28;20054;-67
2023/08/05 05:51:17;;;;;;;1.85;0.20;;;13.80;99.90;;;;;;4988544;28;20157;-67
2023/08/05 05:53:43;;;;;;;0.32;0.15;;;13.90;99.90;;;;;;4988377;28;20038;-67
2023/08/05 05:56:09;;;;;;;0.25;0.10;;;13.90;99.90;;;;;;4983979;28;20038;-67
2023/08/05 05:58:35;;;;;;;0.10;0.10;;;14.00;99.90;;;;;;4988979;28;20482;-67
2023/08/05 06:01:04;;;;;;;0.52;0.22;;;14.20;99.90;;;;;;4984400;28;20399;-67
2023/08/05 06:03:33;;;;;;;0.25;0.20;;;14.30;99.90;;;;;;4983299;28;20399;-67
2023/08/05 06:05:59;;;;;;;2.15;0.30;;;14.40;99.90;;;;;;4983000;28;20416;-66
2023/08/05 06:08:24;;;;;;;0.20;0.20;;;14.50;99.90;;;;;;4983885;28;20051;-67
2023/08/05 06:10:51;;;;;;;0.73;0.43;;;14.60;99.90;;;;;;4975938;28;20042;-67
2023/08/05 06:13:17;;;;;;;0.35;0.20;;;14.80;99.90;;;;;;4980120;28;20066;-67
2023/08/05 06:15:43;;;;;;;0.68;0.28;;;15.00;99.90;;;;;;4982843;28;20141;-66
2023/08/05 06:18:09;;;;;;;0.20;0.10;;;15.20;99.90;;;;;;4985658;28;20487;-66
2023/08/05 06:20:35;;;;;;;0.40;0.20;;;15.30;99.90;;;;;;4974952;28;20131;-67
2023/08/05 06:23:01;;;;;;;0.63;0.15;;;15.40;99.90;;;;;;4983852;28;20042;-67
2023/08/05 06:25:28;;;;;;;0.93;0.43;;;15.50;99.90;;;;;;4983796;28;20057;-66
2023/08/05 06:27:53;;;;;;;0.30;0.20;;;15.60;99.90;;;;;;4982587;28;20103;-67
2023/08/05 06:30:19;;;;;;;0.45;0.17;;;15.80;99.90;;;;;;4977112;28;20069;-67
2023/08/05 06:32:45;;;;;;;0.40;0.25;;;15.80;99.90;;;;;;4975189;28;20047;-67
2023/08/05 06:35:10;;;;;;;2.35;0.30;;;15.90;99.90;;;;;;4965034;28;20050;-67
2023/08/05 06:37:36;;;;;;;1.23;0.57;;;16.00;99.90;;;;;;4970698;28;20499;-67
2023/08/05 06:40:02;;;;;;;0.82;0.40;;;16.00;99.90;;;;;;4967463;28;20051;-67
2023/08/05 06:42:28;;;;;;;1.10;0.30;;;16.00;99.90;;;;;;4974493;28;20045;-66
2023/08/05 06:44:54;;;;;;;0.68;0.32;;;16.00;99.90;;;;;;4964332;28;20307;-67
2023/08/05 06:47:20;;;;;;;0.60;0.43;;;16.00;99.90;;;;;;4966101;28;20039;-66
2023/08/05 06:49:45;;;;;;;0.32;0.20;;;15.90;99.90;;;;;;4962622;28;20047;-66
2023/08/05 06:52:11;;;;;;;0.60;0.43;;;15.90;99.90;;;;;;4963995;28;20042;-66
2023/08/05 06:54:37;;;;;;;0.30;0.20;;;15.90;99.90;;;;;;4967520;28;20117;-66
2023/08/05 06:57:03;;;;;;;0.50;0.25;;;15.90;99.90;;;;;;4961591;28;20082;-66
2023/08/05 06:59:29;;;;;;;0.22;0.10;;;15.90;99.90;;;;;;4971191;28;20081;-67
2023/08/05 07:01:54;;;;;;;0.65;0.30;;;16.00;99.90;;;;;;4963394;28;20173;-66
2023/08/05 07:04:20;;;;;;;0.47;0.20;;;16.00;99.90;;;;;;4973433;28;20117;-66
2023/08/05 07:06:46;;;;;;;1.45;0.35;;;16.00;99.90;;;;;;4970724;28;20134;-66
2023/08/05 07:09:12;;;;;;;1.13;0.77;;;16.00;99.90;;;;;;4948850;28;20403;-66
2023/08/05 07:11:37;;;;;;;1.25;0.40;;;16.10;99.90;;;;;;4967310;28;20046;-67
2023/08/05 07:14:03;;;;;;;0.50;0.20;;;16.10;99.90;;;;;;4970912;28;20523;-66
2023/08/05 07:16:29;;;;;;;0.35;0.32;;;16.20;99.90;;;;;;4963125;28;20039;-66
2023/08/05 07:18:55;;;;;;;0.38;0.20;;;16.20;99.90;;;;;;4953129;28;20047;-67
2023/08/05 07:21:20;;;;;;;0.40;0.15;;;16.30;99.90;;;;;;4960654;28;20090;-67
2023/08/05 07:23:46;;;;;;;0.80;0.47;;;16.40;99.90;;;;;;4970129;28;20061;-66
2023/08/05 07:26:12;;;;;;;3.28;0.30;;;16.30;99.90;;;;;;4970846;28;20391;-67
2023/08/05 07:28:38;;;;;;;0.10;0.10;;;16.40;99.90;;;;;;4967044;28;20039;-66
2023/08/05 07:31:04;;;;;;;0.52;0.17;;;16.40;99.90;;;;;;4966347;28;20040;-67
2023/08/05 07:33:30;;;;;;;0.60;0.22;;;16.40;99.90;;;;;;4987609;28;20406;-66
2023/08/05 07:35:56;;;;;;;0.32;0.15;;;16.40;99.90;;;;;;4998878;28;20050;-66
2023/08/05 07:38:25;;;;;;;0.85;0.45;;;16.40;99.90;;;;;;4982711;28;20089;-67
2023/08/05 07:40:55;;;;;;;0.73;0.52;;;16.50;99.90;;;;;;4984698;28;20492;-67
2023/08/05 07:43:24;;;;;;;0.40;0.40;;;16.50;99.90;;;;;;4985674;28;20050;-66
2023/08/05 07:45:52;;;;;;;0.70;0.25;;;16.50;99.90;;;;;;4986700;28;20546;-67
2023/08/05 07:48:19;;;;;;;2.60;0.43;;;16.50;99.90;;;;;;4984534;28;20122;-66
2023/08/05 07:50:48;;;;;;;0.65;0.20;;;16.60;99.90;;;;;;4985919;28;20047;-66
2023/08/05 07:53:15;;;;;;;0.80;0.40;;;16.60;99.90;;;;;;4986723;28;20042;-66
2023/08/05 07:55:42;;;;;;;0.82;0.50;;;16.60;99.90;;;;;;4976844;28;20054;-67
2023/08/05 07:58:08;;;;;;;0.57;0.35;;;16.70;99.90;;;;;;4980482;28;20157;-66
2023/08/05 08:00:33;;;;;;;2.13;0.77;;;16.70;99.90;;;;;;4983239;28;20124;-66
2023/08/05 08:02:59;;;;;;;0.93;0.50;;;16.80;99.90;;;;;;4983478;28;20042;-66
2023/08/05 08:05:25;;;;;;;0.38;0.15;;;16.90;99.90;;;;;;4977165;28;20100;-66
2023/08/05 08:07:51;;;;;;;2.33;0.57;;;16.90;99.90;;;;;;4979243;28;20545;-66
2023/08/05 08:10:17;;;;;;;0.60;0.25;;;17.00;99.90;;;;;;4988296;28;20043;-66
2023/08/05 08:12:43;;;;;;;0.63;0.43;;;17.10;99.90;;;;;;4980988;28;20077;-66
2023/08/05 08:15:09;;;;;;;0.77;0.40;;;17.20;99.90;;;;;;4987339;28;20513;-66
2023/08/05 08:17:35;;;;;;;1.00;0.20;;;17.30;99.90;;;;;;4982450;28;20038;-66
2023/08/05 08:20:01;;;;;;;0.73;0.25;;;17.40;99.90;;;;;;4984758;28;20038;-66
2023/08/05 08:22:27;;;;;;;0.85;0.40;;;17.60;99.90;;;;;;4978304;28;20078;-67
2023/08/05 08:24:53;;;;;;;0.30;0.20;;;17.60;99.90;;;;;;4983191;28;20048;-67
2023/08/05 08:27:18;;;;;;;0.20;0.10;;;17.70;99.90;;;;;;4982144;28;20034;-66
2023/08/05 08:29:44;;;;;;;0.55;0.20;;;17.70;99.90;;;;;;4981744;28;20034;-66
2023/08/05 08:32:10;;;;;;;0.57;0.25;;;17.80;99.90;;;;;;4980496;28;20174;-67
2023/08/05 08:34:35;;;;;;;1.20;0.30;;;17.80;99.90;;;;;;4974832;28;20619;-67
2023/08/05 08:37:01;;;;;;;2.78;0.55;;;17.90;99.90;;;;;;4984846;28;20046;-66
2023/08/05 08:39:27;;;;;;;0.55;0.17;;;17.90;99.90;;;;;;4982025;28;20038;-66
2023/08/05 08:41:54;;;;;;;0.65;0.20;;;18.00;99.90;;;;;;4987038;28;20170;-66
2023/08/05 08:44:21;;;;;;;0.63;0.10;;;18.10;99.90;;;;;;4981832;28;20046;-66
2023/08/05 08:46:48;;;;;;;0.80;0.17;;;18.20;99.90;;;;;;4984630;28;20081;-66
2023/08/05 08:49:16;;;;;;;0.43;0.20;;;18.20;99.90;;;;;;4986105;28;20439;-67
2023/08/05 08:51:46;;;;;;;0.57;0.13;;;18.30;99.90;;;;;;4985254;28;20030;-67
2023/08/05 08:54:14;;;;;;;0.20;0.13;;;18.30;99.90;;;;;;4979879;28;20041;-67
2023/08/05 08:56:39;;;;;;;0.45;0.40;;;18.30;99.90;;;;;;4980914;28;20738;-67
2023/08/05 08:59:06;;;;;;;0.30;0.20;;;18.50;99.90;;;;;;4983449;28;20042;-67
2023/08/05 09:01:35;;;;;;;0.38;0.10;;;18.80;99.90;;;;;;4976444;28;20050;-66
2023/08/05 09:04:03;;;;;;;2.65;0.22;;;18.90;99.90;;;;;;4979601;28;20117;-66
2023/08/05 09:06:29;;;;;;;0.10;0.10;;;19.00;99.90;;;;;;4980999;28;20045;-67
2023/08/05 09:08:55;;;;;;;0.10;0.10;;;19.20;99.90;;;;;;4982261;28;20046;-67
2023/08/05 09:11:24;;;;;;;0.50;0.13;;;19.20;99.90;;;;;;4975314;28;20069;-66
2023/08/05 09:13:52;;;;;;;0.30;0.10;;;19.20;99.90;;;;;;4979003;28;20501;-67
2023/08/05 09:16:18;;;;;;;1.73;0.30;;;19.20;99.90;;;;;;4980183;28;20074;-66
2023/08/05 09:18:51;;;;;;;0.32;0.22;;;19.20;99.90;;;;;;4985137;28;20132;-67
2023/08/05 09:21:27;;;;;;;0.22;0.20;;;19.30;99.90;;;;;;4987970;28;20072;-67
2023/08/05 09:23:55;;;;;;;0.20;0.10;;;19.30;99.90;;;;;;4977741;28;20060;-66
2023/08/05 09:26:28;;;;;;;0.17;0.10;;;19.40;99.90;;;;;;4981078;28;20112;-67
2023/08/05 09:28:58;;;;;;;0.20;0.15;;;19.60;99.90;;;;;;4977996;28;20043;-66
2023/08/05 09:31:24;;;;;;;0.80;0.25;;;19.90;99.90;;;;;;4972164;28;20050;-67
2023/08/05 09:33:51;;;;;;;0.15;0.03;;;20.20;99.90;;;;;;4981095;28;20494;-66
2023/08/05 09:36:22;;;;;;;0.80;0.25;;;20.50;99.90;;;;;;4981515;28;20542;-67
2023/08/05 09:39:00;;;;;;;0.10;0.10;;;20.70;99.90;;;;;;4987096;28;20482;-67
2023/08/05 09:41:31;;;;;;;0.43;0.30;;;20.90;99.90;;;;;;4985414;28;20229;-67
2023/08/05 09:43:58;;;;;;;0.57;0.20;;;21.00;99.90;;;;;;4979030;28;20047;-66
2023/08/05 09:46:43;;;;;;;0.22;0.10;;;21.20;99.90;;;;;;4979521;28;20136;-66
2023/08/05 09:49:14;;;;;;;0.70;0.30;;;21.20;99.90;;;;;;4985030;28;20038;-67
2023/08/05 09:51:49;;;;;;;0.40;0.10;;;20.90;99.90;;;;;;4977168;28;20042;-67
2023/08/05 09:54:23;;;;;;;0.70;0.30;;;20.80;99.90;;;;;;4981107;28;20038;-67
2023/08/05 09:56:49;;;;;;;0.20;0.10;;;20.90;99.90;;;;;;4984474;28;20116;-67
2023/08/05 09:59:16;;;;;;;0.20;0.13;;;21.00;99.90;;;;;;4977104;28;20534;-67
2023/08/05 10:01:45;;;;;;;0.40;0.20;;;21.30;99.90;;;;;;4976775;28;20125;-67
2023/08/05 10:04:16;;;;;;;0.38;0.10;;;21.70;99.90;;;;;;4985051;28;20142;-67
2023/08/05 10:06:43;;;;;;;0.52;0.20;;;21.90;99.90;;;;;;4985164;28;20094;-67
2023/08/05 10:09:08;;;;;;;0.28;0.20;;;21.80;99.90;;;;;;4982807;28;20038;-67
2023/08/05 10:11:37;;;;;;;0.30;0.20;;;21.60;99.90;;;;;;4976494;28;20065;-67
2023/08/05 10:14:03;;;;;;;1.00;0.10;;;21.60;99.90;;;;;;4983927;28;20369;-67
2023/08/05 10:16:29;;;;;;;0.95;0.50;;;21.60;99.90;;;;;;4975880;28;20035;-66
2023/08/05 10:18:56;;;;;;;1.33;0.10;;;21.80;99.90;;;;;;4977712;28;20141;-67
2023/08/05 10:21:38;;;;;;;1.00;0.15;;;22.20;99.90;;;;;;4977428;28;20043;-67
2023/08/05 10:24:04;;;;;;;0.28;0.10;;;22.80;99.90;;;;;;4981693;28;20034;-67
2023/08/05 10:27:08;;;;;;;0.15;0.10;;;23.10;99.90;;;;;;4981803;28;20105;-67
2023/08/05 10:29:34;;;;;;;0.30;0.20;;;22.90;99.90;;;;;;4978219;28;20084;-67
2023/08/05 10:32:10;;;;;;;0.30;0.20;;;22.80;99.90;;;;;;4978342;28;20078;-67
2023/08/05 10:34:36;;;;;;;0.20;0.10;;;22.50;99.90;;;;;;4983605;28;20121;-67
2023/08/05 10:37:03;;;;;;;0.22;0.15;;;22.30;99.90;;;;;;4979495;28;20161;-67
2023/08/05 10:39:39;;;;;;;0.10;0.10;;;22.10;99.90;;;;;;4986258;28;20088;-67
2023/08/05 10:42:18;;;;;;;0.22;0.15;;;22.00;99.90;;;;;;4983348;28;20050;-67
2023/08/05 10:44:44;;;;;;;1.75;0.20;;;21.70;99.90;;;;;;4984489;28;20092;-67
2023/08/05 10:47:11;;;;;;;0.20;0.10;;;21.70;99.90;;;;;;4980066;28;20046;-68
2023/08/05 10:49:36;;;;;;;0.10;0.10;;;21.50;99.90;;;;;;4980592;28;20078;-67
2023/08/05 10:52:02;;;;;;;0.20;0.10;;;21.50;99.90;;;;;;4987220;28;20078;-67
2023/08/05 10:54:31;;;;;;;0.57;0.25;;;21.30;99.90;;;;;;4970132;28;20049;-67
2023/08/05 10:56:57;;;;;;;0.63;0.25;;;21.20;99.90;;;;;;4981306;28;20051;-67
2023/08/05 10:59:23;;;;;;;0.22;0.20;;;21.00;99.90;;;;;;4982780;28;20367;-67
2023/08/05 11:01:55;;;;;;;2.47;0.30;;;21.00;99.90;;;;;;4983965;28;20114;-67
2023/08/05 11:04:31;;;;;;;0.45;0.20;;;21.00;99.90;;;;;;4987849;28;20038;-67
2023/08/05 11:07:00;;;;;;;0.47;0.20;;;21.00;99.90;;;;;;4977177;28;20234;-67
2023/08/05 11:09:27;;;;;;;0.22;0.20;;;21.00;99.90;;;;;;4983528;28;20513;-67
2023/08/05 11:11:53;;;;;;;0.35;0.22;;;21.10;99.90;;;;;;4985374;28;20065;-67
2023/08/05 11:14:19;;;;;;;0.30;0.17;;;21.20;99.90;;;;;;4983761;28;20038;-67
2023/08/05 11:16:46;;;;;;;1.00;0.30;;;21.30;99.90;;;;;;4989447;28;20096;-67
2023/08/05 11:19:12;;;;;;;1.05;0.28;;;21.00;99.90;;;;;;4982151;28;20118;-67
2023/08/05 11:21:42;;;;;;;1.80;0.20;;;20.70;99.90;;;;;;4983011;28;20137;-67
2023/08/05 11:24:16;;;;;;;0.28;0.10;;;20.50;99.90;;;;;;4978403;28;20050;-67
2023/08/05 11:26:42;;;;;;;0.40;0.20;;;20.30;99.90;;;;;;4986224;28;20073;-67
2023/08/05 11:29:08;;;;;;;0.43;0.30;;;20.20;99.90;;;;;;4985895;28;20529;-67
2023/08/05 11:31:34;;;;;;;0.77;0.40;;;20.00;99.90;;;;;;4982303;28;20050;-67
2023/08/05 11:33:59;;;;;;;0.52;0.30;;;19.80;99.90;;;;;;4983554;28;20066;-67
2023/08/05 11:36:27;;;;;;;0.40;0.30;;;19.70;99.90;;;;;;4978488;28;20084;-66
2023/08/05 11:38:57;;;;;;;0.30;0.20;;;19.60;99.90;;;;;;4984020;28;20077;-65
2023/08/05 11:41:23;;;;;;;0.55;0.40;;;19.40;99.90;;;;;;4983393;28;20057;-64
2023/08/05 11:43:49;;;;;;;0.50;0.40;;;19.20;99.90;;;;;;4984279;28;20078;-66
2023/08/05 11:46:29;;;;;;;0.57;0.30;;;18.90;99.90;;;;;;4982486;28;20077;-64
2023/08/05 11:49:12;;;;;;;1.73;0.80;;;18.80;99.90;;;;;;4986549;28;20042;-64
2023/08/05 11:51:51;;;;;;;1.10;0.60;;;18.60;99.90;;;;;;4981398;28;20185;-64
2023/08/05 11:54:28;;;;;;;2.08;0.65;;;18.60;99.90;;;;;;4985075;28;20046;-64
2023/08/05 11:56:54;;;;;;;1.15;0.75;;;18.60;99.90;;;;;;4982716;28;20432;-64
2023/08/05 11:59:39;;;;;;;1.15;0.63;;;18.70;99.90;;;;;;4982708;28;20043;-63
2023/08/05 12:02:07;;;;;;;1.00;0.70;;;18.80;99.90;;;;;;4978876;28;20049;-63
2023/08/05 12:04:44;;;;;;;0.90;0.50;;;18.90;99.90;;;;;;4975526;28;20365;-64
2023/08/05 12:07:14;;;;;;;0.47;0.47;;;18.90;99.90;;;;;;4985675;28;20046;-63
2023/08/05 12:09:41;;;;;;;1.63;1.15;;;19.10;99.90;;;;;;4984040;28;20427;-64
2023/08/05 12:12:15;;;;;;;4.22;1.08;;;19.30;99.90;;;;;;4975652;28;20457;-63
2023/08/05 12:14:41;;;;;;;1.00;0.80;;;19.40;99.90;;;;;;4978411;28;20043;-64
2023/08/05 12:17:07;;;;;;;2.95;0.77;;;19.40;99.90;;;;;;4982547;28;20046;-63
2023/08/05 12:19:33;;;;;;;1.27;0.70;;;19.50;99.90;;;;;;4986378;28;20031;-64
2023/08/05 12:21:58;;;;;;;1.27;0.85;;;19.60;99.90;;;;;;4976840;28;20035;-64
2023/08/05 12:24:24;;;;;;;1.63;1.08;;;19.70;99.90;;;;;;4979526;28;20035;-64
2023/08/05 12:26:50;;;;;;;1.45;0.98;;;19.80;99.90;;;;;;4982822;28;20042;-64
2023/08/05 12:29:16;;;;;;;1.23;0.90;;;19.90;99.90;;;;;;4981373;28;20042;-64
2023/08/05 12:31:41;;;;;;;1.63;1.00;;;19.90;99.90;;;;;;4975196;28;20082;-64
2023/08/05 12:34:07;;;;;;;1.95;1.45;;;20.00;99.90;;;;;;4984886;28;20145;-64
2023/08/05 12:36:33;;;;;;;1.50;1.35;;;19.90;99.90;;;;;;4984763;28;20054;-64
2023/08/05 12:38:59;;;;;;;1.33;0.70;;;19.80;99.90;;;;;;4983332;28;20072;-64
2023/08/05 12:41:24;;;;;;;2.05;1.35;;;19.70;99.90;;;;;;4978587;28;20046;-64
2023/08/05 12:43:50;;;;;;;1.42;1.10;;;19.50;99.90;;;;;;4981752;28;20034;-64
2023/08/05 12:46:16;;;;;;;1.30;0.98;;;19.40;99.90;;;;;;4981046;28;20130;-63